sensor_id;sensor_type;location;lat;lon;timestamp;P1;durP1;ratioP1;P2;durP2;ratioP2
69900;SDS011;57183;50.930;5.406;2023-06-22T00:02:13;7.55;;;4.00;;
69900;SDS011;57183;50.930;5.406;2023-06-22T00:04:39;12.30;;;4.40;;
69900;SDS011;57183;50.930;5.406;2023-06-22T00:07:05;11.48;;;4.65;;
69900;SDS011;57183;50.930;5.406;2023-06-22T00:09:31;17.67;;;5.10;;
69900;SDS011;57183;50.930;5.406;2023-06-22T00:11:57;9.93;;;4.03;;
69900;SDS011;57183;50.930;5.406;2023-06-22T00:14:23;16.88;;;5.22;;
69900;SDS011;57183;50.930;5.406;2023-06-22T00:16:48;9.13;;;4.85;;
69900;SDS011;57183;50.930;5.406;2023-06-22T00:19:17;9.52;;;5.70;;
69900;SDS011;57183;50.930;5.406;2023-06-22T00:21:44;10.23;;;4.28;;
69900;SDS011;57183;50.930;5.406;2023-06-22T00:24:12;12.60;;;4.85;;
69900;SDS011;57183;50.930;5.406;2023-06-22T00:26:38;11.30;;;5.47;;
69900;SDS011;57183;50.930;5.406;2023-06-22T00:29:03;9.77;;;4.63;;
69900;SDS011;57183;50.930;5.406;2023-06-22T00:31:29;11.15;;;4.63;;
69900;SDS011;57183;50.930;5.406;2023-06-22T00:33:55;16.90;;;4.90;;
69900;SDS011;57183;50.930;5.406;2023-06-22T00:36:20;16.25;;;5.10;;
69900;SDS011;57183;50.930;5.406;2023-06-22T00:38:46;12.38;;;5.25;;
69900;SDS011;57183;50.930;5.406;2023-06-22T00:41:11;12.32;;;4.38;;
69900;SDS011;57183;50.930;5.406;2023-06-22T00:43:37;9.43;;;4.65;;
69900;SDS011;57183;50.930;5.406;2023-06-22T00:46:03;9.90;;;5.22;;
69900;SDS011;57183;50.930;5.406;2023-06-22T00:48:28;9.73;;;4.60;;
69900;SDS011;57183;50.930;5.406;2023-06-22T00:50:54;11.68;;;4.40;;
69900;SDS011;57183;50.930;5.406;2023-06-22T00:53:21;14.60;;;4.88;;
69900;SDS011;57183;50.930;5.406;2023-06-22T00:55:46;9.88;;;5.47;;
69900;SDS011;57183;50.930;5.406;2023-06-22T00:58:16;16.48;;;4.90;;
69900;SDS011;57183;50.930;5.406;2023-06-22T01:00:46;16.48;;;6.40;;
69900;SDS011;57183;50.930;5.406;2023-06-22T01:03:13;11.77;;;4.38;;
69900;SDS011;57183;50.930;5.406;2023-06-22T01:05:39;13.48;;;4.80;;
69900;SDS011;57183;50.930;5.406;2023-06-22T01:08:12;12.48;;;4.68;;
69900;SDS011;57183;50.930;5.406;2023-06-22T01:10:53;22.60;;;7.15;;
69900;SDS011;57183;50.930;5.406;2023-06-22T01:13:32;11.80;;;4.95;;
69900;SDS011;57183;50.930;5.406;2023-06-22T01:16:11;14.15;;;4.45;;
69900;SDS011;57183;50.930;5.406;2023-06-22T01:18:42;15.02;;;5.97;;
69900;SDS011;57183;50.930;5.406;2023-06-22T01:21:11;12.95;;;5.28;;
69900;SDS011;57183;50.930;5.406;2023-06-22T01:23:47;10.52;;;4.80;;
69900;SDS011;57183;50.930;5.406;2023-06-22T01:29:11;10.85;;;4.20;;
69900;SDS011;57183;50.930;5.406;2023-06-22T01:31:39;15.18;;;5.57;;
69900;SDS011;57183;50.930;5.406;2023-06-22T01:34:07;7.25;;;3.97;;
69900;SDS011;57183;50.930;5.406;2023-06-22T01:36:34;12.65;;;4.85;;
69900;SDS011;57183;50.930;5.406;2023-06-22T01:39:02;12.25;;;5.00;;
69900;SDS011;57183;50.930;5.406;2023-06-22T01:41:30;10.93;;;3.90;;
69900;SDS011;57183;50.930;5.406;2023-06-22T01:43:59;14.27;;;4.75;;
69900;SDS011;57183;50.930;5.406;2023-06-22T01:46:26;11.48;;;5.10;;
69900;SDS011;57183;50.930;5.406;2023-06-22T01:48:52;12.80;;;5.50;;
69900;SDS011;57183;50.930;5.406;2023-06-22T01:51:18;13.15;;;4.10;;
69900;SDS011;57183;50.930;5.406;2023-06-22T01:53:44;12.80;;;4.80;;
69900;SDS011;57183;50.930;5.406;2023-06-22T01:56:09;11.50;;;4.25;;
69900;SDS011;57183;50.930;5.406;2023-06-22T01:58:35;11.18;;;3.85;;
69900;SDS011;57183;50.930;5.406;2023-06-22T02:01:10;16.90;;;5.47;;
69900;SDS011;57183;50.930;5.406;2023-06-22T02:03:42;20.38;;;5.30;;
69900;SDS011;57183;50.930;5.406;2023-06-22T02:06:16;10.15;;;4.15;;
69900;SDS011;57183;50.930;5.406;2023-06-22T02:08:48;7.87;;;4.00;;
69900;SDS011;57183;50.930;5.406;2023-06-22T02:11:18;5.90;;;3.45;;
69900;SDS011;57183;50.930;5.406;2023-06-22T02:13:46;7.28;;;4.00;;
69900;SDS011;57183;50.930;5.406;2023-06-22T02:16:13;7.63;;;4.13;;
69900;SDS011;57183;50.930;5.406;2023-06-22T02:18:50;13.32;;;4.68;;
69900;SDS011;57183;50.930;5.406;2023-06-22T02:21:19;8.27;;;5.57;;
69900;SDS011;57183;50.930;5.406;2023-06-22T02:23:46;8.18;;;4.80;;
69900;SDS011;57183;50.930;5.406;2023-06-22T02:26:12;8.65;;;5.65;;
69900;SDS011;57183;50.930;5.406;2023-06-22T02:28:38;7.00;;;5.13;;
69900;SDS011;57183;50.930;5.406;2023-06-22T02:31:04;9.23;;;5.38;;
69900;SDS011;57183;50.930;5.406;2023-06-22T02:33:29;8.63;;;6.57;;
69900;SDS011;57183;50.930;5.406;2023-06-22T02:35:55;7.35;;;4.85;;
69900;SDS011;57183;50.930;5.406;2023-06-22T02:38:21;8.32;;;5.22;;
69900;SDS011;57183;50.930;5.406;2023-06-22T02:40:49;8.60;;;5.35;;
69900;SDS011;57183;50.930;5.406;2023-06-22T02:43:15;9.38;;;4.88;;
69900;SDS011;57183;50.930;5.406;2023-06-22T02:45:41;10.40;;;7.60;;
69900;SDS011;57183;50.930;5.406;2023-06-22T02:48:06;9.65;;;6.15;;
69900;SDS011;57183;50.930;5.406;2023-06-22T02:50:32;9.85;;;8.20;;
69900;SDS011;57183;50.930;5.406;2023-06-22T02:52:58;12.13;;;9.25;;
69900;SDS011;57183;50.930;5.406;2023-06-22T02:55:23;11.90;;;8.82;;
69900;SDS011;57183;50.930;5.406;2023-06-22T02:57:49;12.95;;;9.40;;
69900;SDS011;57183;50.930;5.406;2023-06-22T03:00:17;13.02;;;9.20;;
69900;SDS011;57183;50.930;5.406;2023-06-22T03:02:44;13.82;;;10.65;;
69900;SDS011;57183;50.930;5.406;2023-06-22T03:05:14;11.80;;;8.50;;
69900;SDS011;57183;50.930;5.406;2023-06-22T03:07:43;12.73;;;10.57;;
69900;SDS011;57183;50.930;5.406;2023-06-22T03:10:09;12.57;;;9.75;;
69900;SDS011;57183;50.930;5.406;2023-06-22T03:12:36;15.43;;;12.20;;
69900;SDS011;57183;50.930;5.406;2023-06-22T03:15:03;13.23;;;11.73;;
69900;SDS011;57183;50.930;5.406;2023-06-22T03:17:30;13.93;;;11.55;;
69900;SDS011;57183;50.930;5.406;2023-06-22T03:19:56;16.60;;;12.65;;
69900;SDS011;57183;50.930;5.406;2023-06-22T03:22:21;15.43;;;11.70;;
69900;SDS011;57183;50.930;5.406;2023-06-22T03:24:47;14.80;;;11.32;;
69900;SDS011;57183;50.930;5.406;2023-06-22T03:27:12;17.48;;;13.10;;
69900;SDS011;57183;50.930;5.406;2023-06-22T03:29:38;13.05;;;11.60;;
69900;SDS011;57183;50.930;5.406;2023-06-22T03:32:04;16.40;;;12.15;;
69900;SDS011;57183;50.930;5.406;2023-06-22T03:34:31;15.02;;;12.25;;
69900;SDS011;57183;50.930;5.406;2023-06-22T03:36:58;57.38;;;17.67;;
69900;SDS011;57183;50.930;5.406;2023-06-22T03:39:24;19.05;;;14.32;;
69900;SDS011;57183;50.930;5.406;2023-06-22T03:41:49;28.13;;;13.05;;
69900;SDS011;57183;50.930;5.406;2023-06-22T03:44:15;20.27;;;13.02;;
69900;SDS011;57183;50.930;5.406;2023-06-22T03:46:41;26.95;;;13.13;;
69900;SDS011;57183;50.930;5.406;2023-06-22T03:49:06;31.85;;;13.38;;
69900;SDS011;57183;50.930;5.406;2023-06-22T03:51:32;24.85;;;13.57;;
69900;SDS011;57183;50.930;5.406;2023-06-22T03:53:58;17.38;;;13.18;;
69900;SDS011;57183;50.930;5.406;2023-06-22T03:56:24;11.13;;;8.63;;
69900;SDS011;57183;50.930;5.406;2023-06-22T03:58:49;16.88;;;11.68;;
69900;SDS011;57183;50.930;5.406;2023-06-22T04:01:15;16.90;;;12.90;;
69900;SDS011;57183;50.930;5.406;2023-06-22T04:03:42;16.50;;;12.10;;
69900;SDS011;57183;50.930;5.406;2023-06-22T04:06:08;13.25;;;10.63;;
69900;SDS011;57183;50.930;5.406;2023-06-22T04:08:34;15.02;;;11.75;;
69900;SDS011;57183;50.930;5.406;2023-06-22T04:10:59;19.60;;;13.05;;
69900;SDS011;57183;50.930;5.406;2023-06-22T04:13:25;21.13;;;12.32;;
69900;SDS011;57183;50.930;5.406;2023-06-22T04:15:50;15.00;;;10.90;;
69900;SDS011;57183;50.930;5.406;2023-06-22T04:18:16;16.80;;;11.93;;
69900;SDS011;57183;50.930;5.406;2023-06-22T04:20:42;13.15;;;10.48;;
69900;SDS011;57183;50.930;5.406;2023-06-22T04:23:09;19.58;;;12.88;;
69900;SDS011;57183;50.930;5.406;2023-06-22T04:25:35;14.05;;;11.00;;
69900;SDS011;57183;50.930;5.406;2023-06-22T04:28:01;20.88;;;13.50;;
69900;SDS011;57183;50.930;5.406;2023-06-22T04:30:28;15.25;;;12.48;;
69900;SDS011;57183;50.930;5.406;2023-06-22T04:32:56;14.30;;;12.18;;
69900;SDS011;57183;50.930;5.406;2023-06-22T04:35:23;14.52;;;12.85;;
69900;SDS011;57183;50.930;5.406;2023-06-22T04:37:49;17.08;;;11.85;;
69900;SDS011;57183;50.930;5.406;2023-06-22T04:40:15;19.20;;;12.55;;
69900;SDS011;57183;50.930;5.406;2023-06-22T04:42:41;10.90;;;9.30;;
69900;SDS011;57183;50.930;5.406;2023-06-22T04:45:17;20.17;;;12.43;;
69900;SDS011;57183;50.930;5.406;2023-06-22T04:47:43;20.92;;;15.85;;
69900;SDS011;57183;50.930;5.406;2023-06-22T04:50:10;27.40;;;16.45;;
69900;SDS011;57183;50.930;5.406;2023-06-22T04:52:36;21.45;;;15.85;;
69900;SDS011;57183;50.930;5.406;2023-06-22T04:55:03;22.40;;;17.00;;
69900;SDS011;57183;50.930;5.406;2023-06-22T04:57:29;23.65;;;18.27;;
69900;SDS011;57183;50.930;5.406;2023-06-22T05:00:01;29.13;;;19.35;;
69900;SDS011;57183;50.930;5.406;2023-06-22T05:02:41;28.20;;;19.05;;
69900;SDS011;57183;50.930;5.406;2023-06-22T05:05:07;27.30;;;18.63;;
69900;SDS011;57183;50.930;5.406;2023-06-22T05:07:34;23.90;;;18.50;;
69900;SDS011;57183;50.930;5.406;2023-06-22T05:10:00;31.92;;;20.55;;
69900;SDS011;57183;50.930;5.406;2023-06-22T05:12:30;34.22;;;21.70;;
69900;SDS011;57183;50.930;5.406;2023-06-22T05:14:56;29.52;;;21.58;;
69900;SDS011;57183;50.930;5.406;2023-06-22T05:17:22;32.70;;;21.67;;
69900;SDS011;57183;50.930;5.406;2023-06-22T05:19:47;35.42;;;22.02;;
69900;SDS011;57183;50.930;5.406;2023-06-22T05:22:16;29.25;;;20.73;;
69900;SDS011;57183;50.930;5.406;2023-06-22T05:24:42;31.25;;;22.27;;
69900;SDS011;57183;50.930;5.406;2023-06-22T05:27:09;34.30;;;21.73;;
69900;SDS011;57183;50.930;5.406;2023-06-22T05:29:35;33.75;;;22.90;;
69900;SDS011;57183;50.930;5.406;2023-06-22T05:32:01;31.05;;;21.73;;
69900;SDS011;57183;50.930;5.406;2023-06-22T05:34:27;33.80;;;23.08;;
69900;SDS011;57183;50.930;5.406;2023-06-22T05:36:53;38.58;;;23.80;;
69900;SDS011;57183;50.930;5.406;2023-06-22T05:39:18;30.38;;;22.20;;
69900;SDS011;57183;50.930;5.406;2023-06-22T05:41:44;32.17;;;22.75;;
69900;SDS011;57183;50.930;5.406;2023-06-22T05:44:11;32.50;;;21.42;;
69900;SDS011;57183;50.930;5.406;2023-06-22T05:46:37;33.95;;;22.08;;
69900;SDS011;57183;50.930;5.406;2023-06-22T05:49:09;36.08;;;22.05;;
69900;SDS011;57183;50.930;5.406;2023-06-22T05:51:35;21.20;;;17.23;;
69900;SDS011;57183;50.930;5.406;2023-06-22T05:54:01;31.45;;;20.77;;
69900;SDS011;57183;50.930;5.406;2023-06-22T05:56:26;36.63;;;22.83;;
69900;SDS011;57183;50.930;5.406;2023-06-22T05:58:52;29.75;;;21.88;;
69900;SDS011;57183;50.930;5.406;2023-06-22T06:01:18;28.23;;;20.85;;
69900;SDS011;57183;50.930;5.406;2023-06-22T06:03:43;30.00;;;21.02;;
69900;SDS011;57183;50.930;5.406;2023-06-22T06:06:09;30.10;;;22.05;;
69900;SDS011;57183;50.930;5.406;2023-06-22T06:08:36;33.05;;;21.35;;
69900;SDS011;57183;50.930;5.406;2023-06-22T06:11:02;30.98;;;21.25;;
69900;SDS011;57183;50.930;5.406;2023-06-22T06:13:28;27.98;;;21.92;;
69900;SDS011;57183;50.930;5.406;2023-06-22T06:15:53;28.67;;;20.80;;
69900;SDS011;57183;50.930;5.406;2023-06-22T06:18:22;35.53;;;20.80;;
69900;SDS011;57183;50.930;5.406;2023-06-22T06:20:48;33.13;;;20.67;;
69900;SDS011;57183;50.930;5.406;2023-06-22T06:23:13;29.52;;;18.85;;
69900;SDS011;57183;50.930;5.406;2023-06-22T06:25:39;29.95;;;20.42;;
69900;SDS011;57183;50.930;5.406;2023-06-22T06:28:05;28.13;;;20.40;;
69900;SDS011;57183;50.930;5.406;2023-06-22T06:30:31;28.08;;;19.73;;
69900;SDS011;57183;50.930;5.406;2023-06-22T06:32:56;26.10;;;20.40;;
69900;SDS011;57183;50.930;5.406;2023-06-22T06:35:22;24.50;;;18.40;;
69900;SDS011;57183;50.930;5.406;2023-06-22T06:37:48;22.38;;;16.95;;
69900;SDS011;57183;50.930;5.406;2023-06-22T06:40:15;20.92;;;15.43;;
69900;SDS011;57183;50.930;5.406;2023-06-22T06:42:43;25.83;;;18.60;;
69900;SDS011;57183;50.930;5.406;2023-06-22T06:45:43;30.95;;;17.58;;
69900;SDS011;57183;50.930;5.406;2023-06-22T06:48:02;21.27;;;16.80;;
69900;SDS011;57183;50.930;5.406;2023-06-22T06:50:27;20.13;;;13.82;;
69900;SDS011;57183;50.930;5.406;2023-06-22T06:52:53;20.40;;;15.65;;
69900;SDS011;57183;50.930;5.406;2023-06-22T06:55:19;16.65;;;12.40;;
69900;SDS011;57183;50.930;5.406;2023-06-22T06:57:45;17.02;;;13.25;;
69900;SDS011;57183;50.930;5.406;2023-06-22T07:00:13;18.33;;;14.60;;
69900;SDS011;57183;50.930;5.406;2023-06-22T07:02:40;22.38;;;15.82;;
69900;SDS011;57183;50.930;5.406;2023-06-22T07:05:07;17.65;;;13.75;;
69900;SDS011;57183;50.930;5.406;2023-06-22T07:07:34;14.60;;;13.05;;
69900;SDS011;57183;50.930;5.406;2023-06-22T07:09:59;15.75;;;12.10;;
69900;SDS011;57183;50.930;5.406;2023-06-22T07:12:25;18.05;;;13.55;;
69900;SDS011;57183;50.930;5.406;2023-06-22T07:14:57;21.70;;;13.82;;
69900;SDS011;57183;50.930;5.406;2023-06-22T07:17:27;15.68;;;11.45;;
69900;SDS011;57183;50.930;5.406;2023-06-22T07:19:53;16.48;;;12.45;;
69900;SDS011;57183;50.930;5.406;2023-06-22T07:22:19;17.55;;;13.20;;
69900;SDS011;57183;50.930;5.406;2023-06-22T07:24:44;18.42;;;13.15;;
69900;SDS011;57183;50.930;5.406;2023-06-22T07:27:10;14.45;;;12.85;;
69900;SDS011;57183;50.930;5.406;2023-06-22T07:29:37;17.88;;;13.00;;
69900;SDS011;57183;50.930;5.406;2023-06-22T07:32:05;16.60;;;12.63;;
69900;SDS011;57183;50.930;5.406;2023-06-22T07:34:31;19.73;;;12.38;;
69900;SDS011;57183;50.930;5.406;2023-06-22T07:36:58;15.90;;;13.25;;
69900;SDS011;57183;50.930;5.406;2023-06-22T07:39:24;16.92;;;13.38;;
69900;SDS011;57183;50.930;5.406;2023-06-22T07:41:51;13.13;;;11.77;;
69900;SDS011;57183;50.930;5.406;2023-06-22T07:44:17;18.10;;;13.27;;
69900;SDS011;57183;50.930;5.406;2023-06-22T07:46:43;17.75;;;13.80;;
69900;SDS011;57183;50.930;5.406;2023-06-22T07:49:09;16.20;;;13.93;;
69900;SDS011;57183;50.930;5.406;2023-06-22T07:51:34;18.27;;;13.25;;
69900;SDS011;57183;50.930;5.406;2023-06-22T07:54:00;16.20;;;13.55;;
69900;SDS011;57183;50.930;5.406;2023-06-22T07:56:26;24.20;;;14.73;;
69900;SDS011;57183;50.930;5.406;2023-06-22T07:58:52;17.13;;;14.40;;
69900;SDS011;57183;50.930;5.406;2023-06-22T08:01:18;13.88;;;12.05;;
69900;SDS011;57183;50.930;5.406;2023-06-22T08:03:46;14.85;;;10.98;;
69900;SDS011;57183;50.930;5.406;2023-06-22T08:06:15;19.67;;;14.05;;
69900;SDS011;57183;50.930;5.406;2023-06-22T08:08:41;26.50;;;15.50;;
69900;SDS011;57183;50.930;5.406;2023-06-22T08:11:08;17.95;;;14.27;;
69900;SDS011;57183;50.930;5.406;2023-06-22T08:13:34;13.60;;;11.77;;
69900;SDS011;57183;50.930;5.406;2023-06-22T08:16:00;14.80;;;13.00;;
69900;SDS011;57183;50.930;5.406;2023-06-22T08:18:25;15.63;;;13.98;;
69900;SDS011;57183;50.930;5.406;2023-06-22T08:20:51;16.58;;;13.27;;
69900;SDS011;57183;50.930;5.406;2023-06-22T08:23:17;17.05;;;13.15;;
69900;SDS011;57183;50.930;5.406;2023-06-22T08:25:43;18.95;;;14.50;;
69900;SDS011;57183;50.930;5.406;2023-06-22T08:28:08;16.75;;;13.82;;
69900;SDS011;57183;50.930;5.406;2023-06-22T08:30:34;16.35;;;12.82;;
69900;SDS011;57183;50.930;5.406;2023-06-22T08:33:00;18.90;;;14.00;;
69900;SDS011;57183;50.930;5.406;2023-06-22T08:35:25;17.83;;;13.38;;
69900;SDS011;57183;50.930;5.406;2023-06-22T08:37:51;17.52;;;14.55;;
69900;SDS011;57183;50.930;5.406;2023-06-22T08:40:20;16.50;;;12.57;;
69900;SDS011;57183;50.930;5.406;2023-06-22T08:42:46;14.75;;;13.25;;
69900;SDS011;57183;50.930;5.406;2023-06-22T08:45:13;15.52;;;13.45;;
69900;SDS011;57183;50.930;5.406;2023-06-22T08:47:39;16.10;;;12.77;;
69900;SDS011;57183;50.930;5.406;2023-06-22T08:50:06;17.77;;;14.02;;
69900;SDS011;57183;50.930;5.406;2023-06-22T08:52:33;17.27;;;14.07;;
69900;SDS011;57183;50.930;5.406;2023-06-22T08:54:59;17.58;;;13.55;;
69900;SDS011;57183;50.930;5.406;2023-06-22T08:57:26;16.08;;;13.45;;
69900;SDS011;57183;50.930;5.406;2023-06-22T08:59:52;16.15;;;13.68;;
69900;SDS011;57183;50.930;5.406;2023-06-22T09:02:18;15.15;;;13.55;;
69900;SDS011;57183;50.930;5.406;2023-06-22T09:04:45;16.67;;;11.07;;
69900;SDS011;57183;50.930;5.406;2023-06-22T09:07:11;16.80;;;14.02;;
69900;SDS011;57183;50.930;5.406;2023-06-22T09:09:37;18.05;;;14.57;;
69900;SDS011;57183;50.930;5.406;2023-06-22T09:12:03;15.52;;;12.90;;
69900;SDS011;57183;50.930;5.406;2023-06-22T09:14:29;17.45;;;14.48;;
69900;SDS011;57183;50.930;5.406;2023-06-22T09:16:55;16.08;;;13.18;;
69900;SDS011;57183;50.930;5.406;2023-06-22T09:19:21;16.02;;;14.02;;
69900;SDS011;57183;50.930;5.406;2023-06-22T09:21:46;16.10;;;14.02;;
69900;SDS011;57183;50.930;5.406;2023-06-22T09:24:12;20.33;;;15.00;;
69900;SDS011;57183;50.930;5.406;2023-06-22T09:26:39;17.38;;;13.48;;
69900;SDS011;57183;50.930;5.406;2023-06-22T09:29:05;16.88;;;15.15;;
69900;SDS011;57183;50.930;5.406;2023-06-22T09:31:31;16.15;;;14.45;;
69900;SDS011;57183;50.930;5.406;2023-06-22T09:33:56;16.90;;;14.63;;
69900;SDS011;57183;50.930;5.406;2023-06-22T09:36:22;18.40;;;14.80;;
69900;SDS011;57183;50.930;5.406;2023-06-22T09:38:48;17.33;;;14.18;;
69900;SDS011;57183;50.930;5.406;2023-06-22T09:41:22;17.75;;;14.65;;
69900;SDS011;57183;50.930;5.406;2023-06-22T09:43:48;19.70;;;16.80;;
69900;SDS011;57183;50.930;5.406;2023-06-22T09:46:16;17.85;;;15.32;;
69900;SDS011;57183;50.930;5.406;2023-06-22T09:48:42;16.83;;;15.07;;
69900;SDS011;57183;50.930;5.406;2023-06-22T09:51:08;17.35;;;14.23;;
69900;SDS011;57183;50.930;5.406;2023-06-22T09:53:34;21.77;;;17.17;;
69900;SDS011;57183;50.930;5.406;2023-06-22T09:56:00;20.63;;;17.08;;
69900;SDS011;57183;50.930;5.406;2023-06-22T09:58:26;26.42;;;17.65;;
69900;SDS011;57183;50.930;5.406;2023-06-22T10:00:52;22.42;;;17.13;;
69900;SDS011;57183;50.930;5.406;2023-06-22T10:03:19;21.65;;;18.17;;
69900;SDS011;57183;50.930;5.406;2023-06-22T10:05:45;16.95;;;14.77;;
69900;SDS011;57183;50.930;5.406;2023-06-22T10:08:11;22.58;;;17.38;;
69900;SDS011;57183;50.930;5.406;2023-06-22T10:10:36;25.88;;;20.15;;
69900;SDS011;57183;50.930;5.406;2023-06-22T10:13:07;28.77;;;21.75;;
69900;SDS011;57183;50.930;5.406;2023-06-22T10:15:36;30.52;;;22.10;;
69900;SDS011;57183;50.930;5.406;2023-06-22T10:18:02;34.60;;;23.73;;
69900;SDS011;57183;50.930;5.406;2023-06-22T10:20:28;32.60;;;24.25;;
69900;SDS011;57183;50.930;5.406;2023-06-22T10:22:54;32.40;;;24.95;;
69900;SDS011;57183;50.930;5.406;2023-06-22T10:25:19;33.72;;;25.70;;
69900;SDS011;57183;50.930;5.406;2023-06-22T10:27:46;36.95;;;26.40;;
69900;SDS011;57183;50.930;5.406;2023-06-22T10:30:12;38.80;;;28.13;;
69900;SDS011;57183;50.930;5.406;2023-06-22T10:32:39;39.60;;;28.50;;
69900;SDS011;57183;50.930;5.406;2023-06-22T10:35:05;44.08;;;30.00;;
69900;SDS011;57183;50.930;5.406;2023-06-22T10:37:31;40.05;;;29.80;;
69900;SDS011;57183;50.930;5.406;2023-06-22T10:39:57;43.53;;;30.77;;
69900;SDS011;57183;50.930;5.406;2023-06-22T10:42:23;40.15;;;28.48;;
69900;SDS011;57183;50.930;5.406;2023-06-22T10:44:49;38.00;;;27.17;;
69900;SDS011;57183;50.930;5.406;2023-06-22T10:47:14;37.20;;;27.00;;
69900;SDS011;57183;50.930;5.406;2023-06-22T10:49:40;40.35;;;29.40;;
69900;SDS011;57183;50.930;5.406;2023-06-22T10:52:06;35.80;;;26.50;;
69900;SDS011;57183;50.930;5.406;2023-06-22T10:54:34;40.05;;;28.75;;
69900;SDS011;57183;50.930;5.406;2023-06-22T10:57:00;40.25;;;28.15;;
69900;SDS011;57183;50.930;5.406;2023-06-22T10:59:26;50.88;;;33.33;;
69900;SDS011;57183;50.930;5.406;2023-06-22T11:01:53;48.58;;;32.30;;
69900;SDS011;57183;50.930;5.406;2023-06-22T11:04:20;44.30;;;31.10;;
69900;SDS011;57183;50.930;5.406;2023-06-22T11:06:46;55.72;;;35.92;;
69900;SDS011;57183;50.930;5.406;2023-06-22T11:09:12;51.55;;;34.45;;
69900;SDS011;57183;50.930;5.406;2023-06-22T11:11:43;47.42;;;32.50;;
69900;SDS011;57183;50.930;5.406;2023-06-22T11:14:09;41.97;;;30.15;;
69900;SDS011;57183;50.930;5.406;2023-06-22T11:16:34;45.78;;;32.22;;
69900;SDS011;57183;50.930;5.406;2023-06-22T11:19:00;47.00;;;30.67;;
69900;SDS011;57183;50.930;5.406;2023-06-22T11:21:26;49.88;;;32.53;;
69900;SDS011;57183;50.930;5.406;2023-06-22T11:23:51;44.17;;;31.88;;
69900;SDS011;57183;50.930;5.406;2023-06-22T11:26:17;41.17;;;30.02;;
69900;SDS011;57183;50.930;5.406;2023-06-22T11:28:43;44.15;;;30.85;;
69900;SDS011;57183;50.930;5.406;2023-06-22T11:31:08;30.00;;;23.05;;
69900;SDS011;57183;50.930;5.406;2023-06-22T11:33:34;38.53;;;26.88;;
69900;SDS011;57183;50.930;5.406;2023-06-22T11:36:00;32.40;;;26.48;;
69900;SDS011;57183;50.930;5.406;2023-06-22T11:38:25;30.20;;;25.17;;
69900;SDS011;57183;50.930;5.406;2023-06-22T11:40:51;31.70;;;23.73;;
69900;SDS011;57183;50.930;5.406;2023-06-22T11:43:16;33.83;;;24.92;;
69900;SDS011;57183;50.930;5.406;2023-06-22T11:45:42;31.75;;;24.75;;
69900;SDS011;57183;50.930;5.406;2023-06-22T11:48:08;33.92;;;25.10;;
69900;SDS011;57183;50.930;5.406;2023-06-22T11:50:33;35.80;;;26.52;;
69900;SDS011;57183;50.930;5.406;2023-06-22T11:53:01;30.08;;;22.77;;
69900;SDS011;57183;50.930;5.406;2023-06-22T11:55:28;33.88;;;25.05;;
69900;SDS011;57183;50.930;5.406;2023-06-22T11:57:54;35.35;;;27.10;;
69900;SDS011;57183;50.930;5.406;2023-06-22T12:00:21;31.83;;;24.23;;
69900;SDS011;57183;50.930;5.406;2023-06-22T12:02:49;32.78;;;24.85;;
69900;SDS011;57183;50.930;5.406;2023-06-22T12:05:16;34.95;;;27.60;;
69900;SDS011;57183;50.930;5.406;2023-06-22T12:07:49;30.30;;;24.63;;
69900;SDS011;57183;50.930;5.406;2023-06-22T12:10:15;30.40;;;25.83;;
69900;SDS011;57183;50.930;5.406;2023-06-22T12:12:41;34.33;;;25.63;;
69900;SDS011;57183;50.930;5.406;2023-06-22T12:15:08;36.83;;;27.05;;
69900;SDS011;57183;50.930;5.406;2023-06-22T12:17:35;38.97;;;29.02;;
69900;SDS011;57183;50.930;5.406;2023-06-22T12:20:00;34.47;;;27.10;;
69900;SDS011;57183;50.930;5.406;2023-06-22T12:22:27;40.05;;;28.70;;
69900;SDS011;57183;50.930;5.406;2023-06-22T12:24:52;37.53;;;27.45;;
69900;SDS011;57183;50.930;5.406;2023-06-22T12:27:18;38.60;;;28.17;;
69900;SDS011;57183;50.930;5.406;2023-06-22T12:29:46;37.30;;;28.45;;
69900;SDS011;57183;50.930;5.406;2023-06-22T12:32:12;35.40;;;25.63;;
69900;SDS011;57183;50.930;5.406;2023-06-22T12:34:39;42.47;;;29.88;;
69900;SDS011;57183;50.930;5.406;2023-06-22T12:37:05;40.95;;;30.08;;
69900;SDS011;57183;50.930;5.406;2023-06-22T12:39:31;37.00;;;28.23;;
69900;SDS011;57183;50.930;5.406;2023-06-22T12:41:57;46.97;;;33.53;;
69900;SDS011;57183;50.930;5.406;2023-06-22T12:44:23;45.00;;;30.95;;
69900;SDS011;57183;50.930;5.406;2023-06-22T12:46:49;40.30;;;29.35;;
69900;SDS011;57183;50.930;5.406;2023-06-22T12:49:15;36.97;;;28.42;;
69900;SDS011;57183;50.930;5.406;2023-06-22T12:51:41;44.80;;;32.35;;
69900;SDS011;57183;50.930;5.406;2023-06-22T12:54:07;39.10;;;29.85;;
69900;SDS011;57183;50.930;5.406;2023-06-22T12:56:33;39.58;;;27.75;;
69900;SDS011;57183;50.930;5.406;2023-06-22T12:59:00;47.25;;;31.38;;
69900;SDS011;57183;50.930;5.406;2023-06-22T13:01:28;45.25;;;31.20;;
69900;SDS011;57183;50.930;5.406;2023-06-22T13:03:55;40.38;;;30.63;;
69900;SDS011;57183;50.930;5.406;2023-06-22T13:06:21;40.90;;;29.67;;
69900;SDS011;57183;50.930;5.406;2023-06-22T13:08:47;35.67;;;25.25;;
69900;SDS011;57183;50.930;5.406;2023-06-22T13:11:12;43.53;;;28.83;;
69900;SDS011;57183;50.930;5.406;2023-06-22T13:13:38;38.38;;;28.83;;
69900;SDS011;57183;50.930;5.406;2023-06-22T13:16:05;37.03;;;27.73;;
69900;SDS011;57183;50.930;5.406;2023-06-22T13:18:30;34.70;;;26.55;;
69900;SDS011;57183;50.930;5.406;2023-06-22T13:20:56;33.22;;;24.65;;
69900;SDS011;57183;50.930;5.406;2023-06-22T13:23:23;34.15;;;24.10;;
69900;SDS011;57183;50.930;5.406;2023-06-22T13:25:49;35.15;;;24.33;;
69900;SDS011;57183;50.930;5.406;2023-06-22T13:28:14;31.33;;;22.33;;
69900;SDS011;57183;50.930;5.406;2023-06-22T13:30:42;28.65;;;22.38;;
69900;SDS011;57183;50.930;5.406;2023-06-22T13:33:10;27.35;;;20.60;;
69900;SDS011;57183;50.930;5.406;2023-06-22T13:35:36;31.27;;;21.15;;
69900;SDS011;57183;50.930;5.406;2023-06-22T13:38:02;25.40;;;19.65;;
69900;SDS011;57183;50.930;5.406;2023-06-22T13:40:28;29.35;;;21.70;;
69900;SDS011;57183;50.930;5.406;2023-06-22T13:42:55;26.33;;;19.70;;
69900;SDS011;57183;50.930;5.406;2023-06-22T13:45:20;27.55;;;20.92;;
69900;SDS011;57183;50.930;5.406;2023-06-22T13:47:46;26.60;;;20.67;;
69900;SDS011;57183;50.930;5.406;2023-06-22T13:50:12;29.67;;;21.88;;
69900;SDS011;57183;50.930;5.406;2023-06-22T13:52:38;29.92;;;21.10;;
69900;SDS011;57183;50.930;5.406;2023-06-22T13:55:04;27.88;;;20.42;;
69900;SDS011;57183;50.930;5.406;2023-06-22T13:57:31;32.67;;;21.55;;
69900;SDS011;57183;50.930;5.406;2023-06-22T13:59:57;30.75;;;22.73;;
69900;SDS011;57183;50.930;5.406;2023-06-22T14:02:23;32.42;;;22.88;;
69900;SDS011;57183;50.930;5.406;2023-06-22T14:04:49;30.95;;;22.48;;
69900;SDS011;57183;50.930;5.406;2023-06-22T14:07:14;34.15;;;21.80;;
69900;SDS011;57183;50.930;5.406;2023-06-22T14:09:40;35.35;;;24.00;;
69900;SDS011;57183;50.930;5.406;2023-06-22T14:12:06;34.38;;;23.25;;
69900;SDS011;57183;50.930;5.406;2023-06-22T14:14:32;42.33;;;25.05;;
69900;SDS011;57183;50.930;5.406;2023-06-22T14:16:59;42.08;;;27.58;;
69900;SDS011;57183;50.930;5.406;2023-06-22T14:19:24;45.10;;;29.30;;
69900;SDS011;57183;50.930;5.406;2023-06-22T14:21:50;49.55;;;30.35;;
69900;SDS011;57183;50.930;5.406;2023-06-22T14:24:16;43.30;;;30.30;;
69900;SDS011;57183;50.930;5.406;2023-06-22T14:26:42;46.00;;;31.77;;